Hayfield, Minnesota
Current Conditions -  °F | °C
As of 10:33 AM on Friday 31 Oct 2014 (Local Time) from KTOB Reporting Station
Clear Clear  
Wind Chill: 22°   Ceiling: Unl
Heat Index: 32°   Visibility: 10mi
Dew Point: 19°   Wind: 15mph
Humidity: 60%   Direction: 10°N
Pressure: 30.48"   Gusts: NA
Location:  43.89°N, 92.85°W
Report Text: KTOB 311533Z AUTO 01013KT 10SM CLR 00/M07 A3048 RMK AO2
Loading
Personal Weather Stations






























Interactive Weather Map
Tropical Storm Tracking
New forecast layout! Learn more

10-Day Weather Forecast

Advertisements
Track Severe Weather on mobile